Search for airport 
image banner adimage banner adimage banner ad
image banner ad

1O3 - Lodi

Located in Lodi, United States

ICAO - 1O3, IATA -

Data provided by Airmate  

General information

Coordinates: N38°12'9" W121°16'9"
Elevation is 60 feet MSL.
Magnetic variation is 16° East
View others Airports in California

Operational data

Special qualification required
Current time UTC:
Current local time:
Weather at : KSCK - Stockton Metropolitan ( 34 km )
METAR: KSCK 212155Z 00000KT 10SM CLR 33/10 A3003 RMK AO2 SLP167 T03280100
TAF: KSCK 211724Z 2118/2218 VRB05KT P6SM SKC
View NOTAMs / SUP AIP / TFR affecting this airport [VIEW]
Communications frequencies: [VIEW]

Runways:

RWY identifierQFULength (ft)Width (ft)SurfaceLDA (ft)
0892°354740ASPH
26272°354740ASPH
12135°197925ASPH
30315°197925ASPH

Airport contact information

Address: Lodi United States

Other aviation service providers

Flight schools

Cfi Academy

Cfi Academy
admin@cfiacademy.com+1(916)209-0234

Satellite view of 1O3